createdAt,value
2022-08-09T04:30:55.985Z,0.00
2022-08-09T04:31:58.599Z,0.00
2022-08-09T04:32:55.955Z,0.00
2022-08-09T04:33:57.144Z,0.00
2022-08-09T04:34:57.669Z,0.00
2022-08-09T04:35:55.913Z,0.00
2022-08-09T04:36:55.914Z,0.00
2022-08-09T04:37:55.903Z,0.00
2022-08-09T04:38:55.938Z,0.00
2022-08-09T04:39:56.734Z,0.00
2022-08-09T04:40:57.160Z,0.00
2022-08-09T04:41:55.866Z,0.00
2022-08-09T04:42:56.886Z,0.00
2022-08-09T04:44:06.080Z,0.00
2022-08-09T04:44:56.845Z,0.00
2022-08-09T04:45:55.816Z,0.00
2022-08-09T04:47:00.047Z,0.00
2022-08-09T04:47:58.863Z,0.00
2022-08-09T04:48:57.652Z,0.00
2022-08-09T04:49:55.970Z,0.00
2022-08-09T04:50:55.805Z,0.00
2022-08-09T04:51:55.747Z,0.00
2022-08-09T04:52:55.737Z,0.00
2022-08-09T04:53:58.558Z,0.00
2022-08-09T04:54:55.724Z,0.00
2022-08-09T04:55:57.872Z,0.00
2022-08-09T04:56:55.708Z,0.00
2022-08-09T04:58:01.692Z,0.00
2022-08-09T04:58:56.680Z,0.00
2022-08-09T04:59:55.661Z,0.00
2022-08-09T05:00:55.673Z,5.62
2022-08-09T05:01:55.643Z,5.62
2022-08-09T05:02:55.666Z,5.62
2022-08-09T05:03:56.800Z,5.62
2022-08-09T05:04:56.119Z,5.62
2022-08-09T05:06:06.805Z,5.62
2022-08-09T05:06:56.588Z,5.62
2022-08-09T05:07:55.564Z,5.62
2022-08-09T05:09:00.566Z,5.62
2022-08-09T05:09:56.582Z,5.62
2022-08-09T05:10:55.554Z,5.62
2022-08-09T05:11:55.537Z,5.62
2022-08-09T05:12:55.529Z,5.62
2022-08-09T05:13:55.528Z,5.62
2022-08-09T05:14:55.513Z,5.62
2022-08-09T05:15:56.690Z,5.62
2022-08-09T05:16:59.194Z,5.62
2022-08-09T05:18:39.506Z,5.62
2022-08-09T05:18:58.357Z,5.62
2022-08-09T05:19:56.666Z,5.62
2022-08-09T05:20:55.428Z,5.62
2022-08-09T05:21:56.493Z,5.62
2022-08-09T05:23:54.578Z,5.62
2022-08-09T05:24:00.540Z,5.62
2022-08-09T05:24:57.262Z,5.62
2022-08-09T05:25:56.857Z,5.62
2022-08-09T05:26:55.377Z,5.62
2022-08-09T05:27:55.541Z,5.62
2022-08-09T05:28:55.359Z,5.62
2022-08-09T05:29:55.333Z,5.62
2022-08-09T05:30:55.317Z,11.25
2022-08-09T05:31:58.410Z,11.25
2022-08-09T05:32:55.297Z,11.25
2022-08-09T05:33:55.296Z,11.25
2022-08-09T05:34:55.288Z,11.25
2022-08-09T05:35:57.230Z,11.25
2022-08-09T05:36:55.286Z,11.25
2022-08-09T05:37:55.270Z,11.25
2022-08-09T05:38:55.245Z,11.25
2022-08-09T05:39:55.295Z,11.25
2022-08-09T05:40:55.250Z,11.25
2022-08-09T05:41:55.248Z,11.25
2022-08-09T05:42:55.193Z,11.25
2022-08-09T05:43:55.230Z,11.25
2022-08-09T05:44:55.182Z,16.88
2022-08-09T05:45:57.018Z,16.88
2022-08-09T05:46:55.151Z,16.88
2022-08-09T05:48:01.281Z,16.88
2022-08-09T05:48:59.023Z,16.88
2022-08-09T05:50:30.773Z,16.88
2022-08-09T05:51:11.990Z,16.88
2022-08-09T05:51:56.098Z,16.88
2022-08-09T05:52:55.165Z,16.88
2022-08-09T05:53:57.278Z,16.88
2022-08-09T05:54:55.217Z,16.88
2022-08-09T05:55:55.062Z,16.88
2022-08-09T05:56:56.809Z,16.88
2022-08-09T05:57:56.352Z,16.88
2022-08-09T05:58:58.257Z,16.88
2022-08-09T05:59:55.019Z,16.88
2022-08-09T06:00:55.043Z,16.88
2022-08-09T06:01:58.523Z,16.88
2022-08-09T06:02:56.908Z,16.88
2022-08-09T06:03:58.245Z,16.88
2022-08-09T06:04:55.702Z,16.88
2022-08-09T06:06:04.528Z,22.50
2022-08-09T06:06:55.932Z,22.50
2022-08-09T06:08:05.434Z,22.50
2022-08-09T06:08:55.937Z,22.50
2022-08-09T06:10:02.223Z,22.50
2022-08-09T06:10:58.044Z,22.50
2022-08-09T06:11:57.182Z,22.50
2022-08-09T06:13:11.788Z,22.50
2022-08-09T06:13:55.875Z,22.50
2022-08-09T06:14:54.872Z,22.50
2022-08-09T06:15:54.830Z,28.12
2022-08-09T06:16:54.837Z,28.12
2022-08-09T06:17:55.721Z,28.12
2022-08-09T06:18:54.808Z,28.12
2022-08-09T06:19:54.820Z,28.12
2022-08-09T06:20:57.744Z,28.12
2022-08-09T06:21:58.812Z,28.12
2022-08-09T06:22:54.762Z,28.12
2022-08-09T06:24:01.131Z,28.12
2022-08-09T06:24:55.767Z,33.75
2022-08-09T06:25:55.322Z,33.75
2022-08-09T06:26:54.775Z,33.75
2022-08-09T06:27:54.735Z,33.75
2022-08-09T06:29:00.912Z,33.75
2022-08-09T06:30:04.607Z,33.75
2022-08-09T06:30:55.771Z,33.75
2022-08-09T06:32:17.151Z,33.75
2022-08-09T06:33:00.560Z,33.75
2022-08-09T06:33:55.643Z,33.75
2022-08-09T06:34:54.651Z,33.75
2022-08-09T06:35:57.200Z,33.75
2022-08-09T06:36:59.390Z,33.75
2022-08-09T06:38:06.705Z,33.75
2022-08-09T06:38:56.962Z,33.75
2022-08-09T06:39:59.885Z,33.75
2022-08-09T06:40:55.574Z,33.75
2022-08-09T06:42:08.491Z,33.75
2022-08-09T06:42:55.539Z,33.75
2022-08-09T06:43:54.551Z,33.75
2022-08-09T06:44:54.748Z,39.38
2022-08-09T06:46:05.124Z,39.38
2022-08-09T06:46:55.781Z,39.38
2022-08-09T06:48:00.812Z,39.38
2022-08-09T06:48:59.699Z,39.38
2022-08-09T06:50:14.001Z,39.38
2022-08-09T06:50:55.458Z,39.38
2022-08-09T06:51:54.455Z,39.38
2022-08-09T06:52:54.493Z,39.38
2022-08-09T06:53:54.436Z,39.38
2022-08-09T06:54:54.453Z,39.38
2022-08-09T06:55:54.406Z,39.38
2022-08-09T06:56:54.391Z,45.00
2022-08-09T06:58:03.346Z,45.00
2022-08-09T07:00:48.976Z,45.00
2022-08-09T07:00:52.618Z,45.00
2022-08-09T07:00:58.456Z,45.00
2022-08-09T07:01:59.758Z,45.00
2022-08-09T07:02:55.401Z,45.00
2022-08-09T07:03:56.709Z,45.00
2022-08-09T07:04:54.311Z,45.00
2022-08-09T07:06:03.165Z,45.00
2022-08-09T07:07:00.297Z,45.00
2022-08-09T07:07:59.706Z,45.00
2022-08-09T07:08:55.276Z,45.00
2022-08-09T07:10:02.464Z,50.62
2022-08-09T07:10:55.244Z,50.62
2022-08-09T07:11:54.231Z,50.62
2022-08-09T07:12:57.754Z,50.62
2022-08-09T07:14:04.813Z,50.62
2022-08-09T07:14:55.197Z,50.62
2022-08-09T07:16:41.087Z,50.62
2022-08-09T07:16:58.395Z,50.62
2022-08-09T07:17:56.458Z,50.62
2022-08-09T07:18:55.173Z,56.25
2022-08-09T07:19:55.600Z,56.25
2022-08-09T07:20:54.157Z,56.25
2022-08-09T07:21:56.987Z,56.25
2022-08-09T07:22:54.423Z,56.25
2022-08-09T07:23:57.873Z,56.25
2022-08-09T07:24:54.215Z,56.25
2022-08-09T07:26:02.297Z,56.25
2022-08-09T07:26:55.068Z,56.25
2022-08-09T07:27:55.415Z,56.25
2022-08-09T07:29:09.023Z,56.25
2022-08-09T07:29:57.097Z,56.25
2022-08-09T07:30:54.043Z,56.25
2022-08-09T07:31:54.035Z,56.25
2022-08-09T07:32:54.748Z,56.25
2022-08-09T07:33:55.770Z,56.25
2022-08-09T07:34:53.986Z,56.25
2022-08-09T07:35:54.774Z,56.25
2022-08-09T07:36:53.973Z,56.25
2022-08-09T07:37:54.125Z,56.25
2022-08-09T07:39:00.546Z,56.25
2022-08-09T07:39:55.039Z,56.25
2022-08-09T07:41:08.318Z,56.25
2022-08-09T07:41:54.929Z,56.25
2022-08-09T07:42:54.169Z,61.88
2022-08-09T07:43:56.513Z,61.88
2022-08-09T07:44:56.299Z,61.88
2022-08-09T07:45:53.917Z,61.88
2022-08-09T07:46:54.874Z,61.88
2022-08-09T07:48:00.636Z,61.88
2022-08-09T07:48:59.257Z,61.88
2022-08-09T07:50:07.959Z,61.88
2022-08-09T07:51:03.128Z,61.88
2022-08-09T07:52:04.418Z,61.88
2022-08-09T07:52:57.517Z,61.88
2022-08-09T07:54:06.796Z,61.88
2022-08-09T07:54:54.773Z,61.88
2022-08-09T07:56:03.624Z,61.88
2022-08-09T07:56:54.765Z,61.88
2022-08-09T07:57:53.741Z,67.50
2022-08-09T07:58:53.738Z,67.50
2022-08-09T08:00:02.877Z,67.50
2022-08-09T08:00:58.784Z,67.50
2022-08-09T08:01:54.773Z,67.50
2022-08-09T08:02:53.714Z,67.50
2022-08-09T08:03:53.683Z,67.50
2022-08-09T08:04:54.077Z,67.50
2022-08-09T08:05:57.853Z,61.88
2022-08-09T08:06:56.236Z,61.88
2022-08-09T08:08:44.414Z,61.88
2022-08-09T08:09:03.480Z,61.88
2022-08-09T08:09:54.961Z,61.88
2022-08-09T08:11:03.444Z,61.88
2022-08-09T08:12:24.679Z,61.88
2022-08-09T08:12:54.614Z,61.88
2022-08-09T08:13:57.171Z,61.88
2022-08-09T08:14:53.579Z,61.88
2022-08-09T08:15:53.551Z,61.88
2022-08-09T08:17:00.871Z,67.50
2022-08-09T08:17:58.520Z,61.88
2022-08-09T08:18:53.531Z,61.88
2022-08-09T08:19:53.510Z,61.88
2022-08-09T08:20:53.512Z,61.88
2022-08-09T08:21:53.488Z,61.88
2022-08-09T08:22:55.655Z,61.88
2022-08-09T08:23:56.036Z,61.88
2022-08-09T08:24:53.467Z,61.88
2022-08-09T08:26:06.234Z,61.88
2022-08-09T08:26:56.055Z,61.88
2022-08-09T08:27:53.425Z,61.88
2022-08-09T08:28:53.428Z,61.88
2022-08-09T08:29:53.402Z,61.88
2022-08-09T08:30:53.404Z,61.88
2022-08-09T08:32:04.210Z,73.12
2022-08-09T08:32:54.395Z,73.12
2022-08-09T08:33:56.075Z,67.50
2022-08-09T08:34:55.389Z,67.50
2022-08-09T08:35:58.894Z,67.50
2022-08-09T08:36:54.329Z,67.50
2022-08-09T08:38:00.049Z,67.50
2022-08-09T08:38:54.323Z,67.50
2022-08-09T08:39:53.372Z,61.88
2022-08-09T08:40:53.295Z,61.88
2022-08-09T08:41:53.278Z,67.50
2022-08-09T08:42:53.263Z,67.50
2022-08-09T08:43:53.266Z,67.50
2022-08-09T08:44:53.249Z,67.50
2022-08-09T08:46:03.678Z,67.50
2022-08-09T08:47:02.276Z,67.50
2022-08-09T08:47:59.057Z,67.50
2022-08-09T08:48:54.249Z,67.50
2022-08-09T08:49:54.528Z,67.50
2022-08-09T08:50:53.231Z,67.50
2022-08-09T08:52:00.257Z,67.50
2022-08-09T08:52:59.361Z,67.50
2022-08-09T08:54:04.426Z,67.50
2022-08-09T08:54:54.130Z,67.50
2022-08-09T08:55:53.125Z,67.50
2022-08-09T08:56:53.114Z,67.50
2022-08-09T08:57:56.567Z,67.50
2022-08-09T08:58:53.118Z,67.50
2022-08-09T08:59:53.951Z,67.50
2022-08-09T09:00:56.304Z,67.50
2022-08-09T09:01:57.375Z,67.50
2022-08-09T09:02:55.743Z,61.88
2022-08-09T09:03:53.113Z,61.88
2022-08-09T09:04:53.503Z,61.88
2022-08-09T09:06:02.974Z,61.88
2022-08-09T09:06:54.009Z,61.88
2022-08-09T09:07:53.000Z,61.88
2022-08-09T09:08:53.006Z,61.88
2022-08-09T09:10:02.282Z,61.88
2022-08-09T09:10:52.965Z,61.88
2022-08-09T09:11:52.999Z,61.88
2022-08-09T09:12:52.947Z,61.88
2022-08-09T09:13:56.282Z,61.88
2022-08-09T09:14:53.941Z,61.88
2022-08-09T09:15:52.917Z,61.88
2022-08-09T09:16:52.899Z,61.88
2022-08-09T09:17:53.231Z,61.88
2022-08-09T09:19:06.431Z,61.88
2022-08-09T09:19:53.886Z,67.50
2022-08-09T09:20:52.863Z,67.50
2022-08-09T09:21:52.851Z,67.50
2022-08-09T09:22:52.835Z,67.50
2022-08-09T09:23:58.405Z,67.50
2022-08-09T09:24:59.081Z,67.50
2022-08-09T09:26:00.905Z,67.50
2022-08-09T09:26:53.801Z,67.50
2022-08-09T09:28:04.986Z,67.50
2022-08-09T09:29:03.663Z,67.50
2022-08-09T09:30:13.319Z,67.50
2022-08-09T09:30:54.026Z,67.50
2022-08-09T09:32:06.385Z,67.50
2022-08-09T09:32:53.766Z,67.50
2022-08-09T09:33:56.893Z,67.50
2022-08-09T09:34:52.719Z,67.50
2022-08-09T09:35:53.105Z,67.50
2022-08-09T09:36:54.722Z,67.50
2022-08-09T09:37:52.701Z,67.50
2022-08-09T09:38:52.696Z,67.50
2022-08-09T09:39:55.624Z,67.50
2022-08-09T09:40:52.672Z,67.50
2022-08-09T09:41:54.287Z,67.50
2022-08-09T09:42:52.628Z,67.50
2022-08-09T09:44:11.071Z,67.50
2022-08-09T09:44:53.629Z,67.50
2022-08-09T09:46:39.477Z,67.50
2022-08-09T09:46:53.590Z,67.50
2022-08-09T09:47:58.733Z,67.50
2022-08-09T09:48:53.561Z,67.50
2022-08-09T09:50:13.356Z,67.50
2022-08-09T09:50:53.561Z,67.50
2022-08-09T09:51:52.532Z,67.50
2022-08-09T09:52:54.651Z,67.50
2022-08-09T09:54:00.986Z,67.50
2022-08-09T09:54:55.718Z,67.50
2022-08-09T09:56:03.980Z,67.50
2022-08-09T09:58:02.313Z,67.50
2022-08-09T09:58:04.218Z,67.50
2022-08-09T09:58:53.583Z,73.12
2022-08-09T09:59:52.445Z,73.12
2022-08-09T10:00:55.205Z,73.12
2022-08-09T10:01:53.435Z,73.12
2022-08-09T10:02:52.436Z,73.12
2022-08-09T10:03:57.801Z,73.12
2022-08-09T10:04:53.397Z,73.12
2022-08-09T10:06:01.047Z,73.12
2022-08-09T10:06:54.436Z,73.12
2022-08-09T10:08:11.267Z,73.12
2022-08-09T10:08:55.298Z,73.12
2022-08-09T10:09:54.587Z,73.12
2022-08-09T10:10:52.346Z,73.12
2022-08-09T10:12:00.703Z,73.12
2022-08-09T10:12:53.754Z,78.75
2022-08-09T10:13:52.304Z,78.75
2022-08-09T10:14:52.305Z,78.75
2022-08-09T10:16:54.511Z,78.75
2022-08-09T10:16:57.263Z,78.75
2022-08-09T10:17:56.533Z,78.75
2022-08-09T10:18:54.392Z,78.75
2022-08-09T10:19:52.228Z,78.75
2022-08-09T10:20:52.232Z,73.12
2022-08-09T10:21:52.228Z,73.12
2022-08-09T10:22:55.040Z,73.12
2022-08-09T10:23:53.194Z,73.12
2022-08-09T10:24:52.189Z,73.12
2022-08-09T10:26:07.111Z,73.12
2022-08-09T10:26:53.157Z,73.12
2022-08-09T10:27:57.229Z,73.12
2022-08-09T10:29:32.221Z,73.12
2022-08-09T10:30:43.824Z,73.12
2022-08-09T10:32:37.649Z,73.12
2022-08-09T10:32:53.458Z,73.12
2022-08-09T10:34:08.257Z,73.12
2022-08-09T10:34:53.093Z,73.12
2022-08-09T10:35:52.072Z,73.12
2022-08-09T10:36:52.057Z,73.12
2022-08-09T10:37:52.050Z,73.12
2022-08-09T10:38:56.605Z,73.12
2022-08-09T10:39:53.093Z,73.12
2022-08-09T10:40:52.067Z,73.12
2022-08-09T10:41:52.014Z,73.12
2022-08-09T10:42:53.048Z,73.12
2022-08-09T10:43:59.822Z,73.12
2022-08-09T10:44:53.005Z,73.12
2022-08-09T10:46:00.040Z,73.12
2022-08-09T10:46:57.451Z,73.12
2022-08-09T10:48:26.217Z,73.12
2022-08-09T10:48:52.930Z,73.12
2022-08-09T10:49:54.245Z,73.12
2022-08-09T10:50:51.912Z,73.12
2022-08-09T10:51:52.871Z,73.12
2022-08-09T10:52:51.897Z,73.12
2022-08-09T10:53:54.683Z,73.12
2022-08-09T10:54:53.300Z,73.12
2022-08-09T10:55:57.768Z,73.12
2022-08-09T10:56:52.843Z,73.12
2022-08-09T10:57:55.847Z,73.12
2022-08-09T10:58:54.009Z,73.12
2022-08-09T10:59:57.766Z,73.12
2022-08-09T11:03:05.619Z,73.12
2022-08-09T11:03:11.890Z,73.12
2022-08-09T11:03:13.856Z,73.12
2022-08-09T11:03:53.881Z,73.12
2022-08-09T11:04:56.143Z,73.12
2022-08-09T11:06:00.469Z,67.50
2022-08-09T11:06:51.742Z,73.12
2022-08-09T11:07:56.985Z,73.12
2022-08-09T11:08:53.914Z,73.12
2022-08-09T11:09:52.484Z,73.12
2022-08-09T11:10:54.674Z,73.12
2022-08-09T11:11:52.128Z,73.12
2022-08-09T11:12:51.678Z,73.12
2022-08-09T11:13:54.305Z,73.12
2022-08-09T11:14:51.666Z,73.12
2022-08-09T11:16:04.832Z,73.12
2022-08-09T11:16:52.658Z,73.12
2022-08-09T11:17:53.710Z,73.12
2022-08-09T11:18:52.643Z,73.12
2022-08-09T11:20:11.700Z,73.12
2022-08-09T11:20:52.592Z,73.12
2022-08-09T11:21:55.246Z,73.12
2022-08-09T11:22:56.873Z,73.12
2022-08-09T11:23:52.566Z,67.50
2022-08-09T11:24:51.574Z,67.50
2022-08-09T11:25:51.546Z,67.50
2022-08-09T11:26:52.292Z,67.50
2022-08-09T11:28:05.538Z,67.50
2022-08-09T11:28:56.663Z,67.50
2022-08-09T11:30:04.802Z,67.50
2022-08-09T11:30:52.528Z,73.12
2022-08-09T11:31:52.811Z,67.50
2022-08-09T11:32:51.492Z,67.50
2022-08-09T11:33:51.487Z,67.50
2022-08-09T11:34:51.720Z,67.50
2022-08-09T11:35:51.785Z,67.50
2022-08-09T11:36:51.433Z,67.50
2022-08-09T11:37:51.425Z,67.50
2022-08-09T11:38:51.431Z,67.50
2022-08-09T11:39:51.486Z,67.50
2022-08-09T11:40:54.709Z,67.50
2022-08-09T11:41:53.690Z,67.50
2022-08-09T11:42:52.383Z,67.50
2022-08-09T11:43:51.682Z,67.50
2022-08-09T11:44:51.351Z,67.50
2022-08-09T11:45:51.345Z,67.50
2022-08-09T11:46:51.342Z,61.88
2022-08-09T11:47:51.323Z,61.88
2022-08-09T11:48:51.359Z,61.88
2022-08-09T11:50:54.036Z,67.50
2022-08-09T11:51:38.235Z,67.50
2022-08-09T11:52:57.059Z,67.50
2022-08-09T11:53:02.836Z,67.50
2022-08-09T11:53:59.728Z,67.50
2022-08-09T11:54:52.250Z,67.50
2022-08-09T11:55:53.736Z,67.50
2022-08-09T11:56:52.242Z,67.50
2022-08-09T11:58:02.270Z,67.50
2022-08-09T11:58:52.206Z,67.50
2022-08-09T11:59:52.239Z,67.50
2022-08-09T12:00:53.130Z,67.50
2022-08-09T12:02:34.255Z,67.50
2022-08-09T12:02:52.453Z,67.50
2022-08-09T12:03:57.484Z,61.88
2022-08-09T12:04:54.636Z,61.88
2022-08-09T12:05:52.142Z,61.88
2022-08-09T12:06:55.777Z,61.88
2022-08-09T12:07:52.761Z,61.88
2022-08-09T12:08:51.127Z,61.88
2022-08-09T12:09:51.397Z,61.88
2022-08-09T12:10:52.926Z,61.88
2022-08-09T12:12:02.663Z,61.88
2022-08-09T12:12:52.893Z,61.88
2022-08-09T12:14:09.658Z,61.88
2022-08-09T12:15:07.912Z,61.88
2022-08-09T12:15:52.621Z,61.88
2022-08-09T12:16:53.500Z,61.88
2022-08-09T12:17:52.215Z,67.50
2022-08-09T12:18:53.833Z,67.50
2022-08-09T12:19:51.004Z,61.88
2022-08-09T12:20:51.978Z,61.88
2022-08-09T12:21:51.451Z,61.88
2022-08-09T12:22:50.976Z,61.88
2022-08-09T12:24:06.390Z,61.88
2022-08-09T12:24:51.968Z,56.25
2022-08-09T12:25:50.927Z,56.25
2022-08-09T12:28:58.799Z,56.25
2022-08-09T12:29:10.730Z,56.25
2022-08-09T12:29:13.970Z,56.25
2022-08-09T12:30:02.102Z,56.25
2022-08-09T12:30:51.915Z,56.25
2022-08-09T12:31:59.163Z,56.25
2022-08-09T12:32:51.863Z,56.25
2022-08-09T12:34:01.062Z,56.25
2022-08-09T12:34:50.844Z,56.25
2022-08-09T12:35:50.833Z,56.25
2022-08-09T12:36:50.841Z,56.25
2022-08-09T12:37:52.312Z,56.25
2022-08-09T12:38:50.795Z,56.25
2022-08-09T12:39:50.820Z,56.25
2022-08-09T12:40:51.926Z,56.25
2022-08-09T12:41:50.771Z,56.25
2022-08-09T12:42:51.056Z,56.25
2022-08-09T12:44:06.391Z,56.25
2022-08-09T12:44:52.315Z,56.25
2022-08-09T12:45:59.451Z,56.25
2022-08-09T12:46:51.713Z,50.62
2022-08-09T12:47:50.703Z,50.62
2022-08-09T12:48:50.686Z,50.62
2022-08-09T12:49:51.000Z,50.62
2022-08-09T12:50:50.680Z,50.62
2022-08-09T12:51:52.846Z,50.62
2022-08-09T12:53:08.167Z,50.62
2022-08-09T12:53:52.811Z,50.62
2022-08-09T12:56:11.092Z,50.62
2022-08-09T12:56:12.174Z,50.62
2022-08-09T12:56:53.967Z,45.00
2022-08-09T12:57:50.598Z,45.00
2022-08-09T12:58:57.646Z,45.00
2022-08-09T13:00:03.166Z,45.00
2022-08-09T13:00:51.669Z,45.00
2022-08-09T13:01:50.702Z,45.00
2022-08-09T13:02:54.075Z,45.00
2022-08-09T13:03:53.579Z,45.00
2022-08-09T13:04:51.528Z,45.00
2022-08-09T13:05:51.779Z,45.00
2022-08-09T13:06:51.542Z,45.00
2022-08-09T13:07:52.103Z,45.00
2022-08-09T13:08:53.212Z,45.00
2022-08-09T13:09:55.488Z,45.00
2022-08-09T13:10:52.217Z,45.00
2022-08-09T13:11:50.480Z,45.00
2022-08-09T13:13:09.045Z,45.00
2022-08-09T13:14:40.974Z,45.00
2022-08-09T13:14:54.210Z,45.00
2022-08-09T13:15:50.423Z,45.00
2022-08-09T13:16:50.438Z,39.38
2022-08-09T13:18:04.604Z,39.38
2022-08-09T13:18:53.452Z,39.38
2022-08-09T13:20:10.248Z,39.38
2022-08-09T13:22:34.379Z,39.38
2022-08-09T13:22:38.123Z,39.38
2022-08-09T13:23:05.830Z,33.75
2022-08-09T13:24:17.231Z,33.75
2022-08-09T13:24:54.091Z,33.75
2022-08-09T13:25:52.935Z,33.75
2022-08-09T13:26:50.310Z,33.75
2022-08-09T13:27:55.896Z,33.75
2022-08-09T13:28:51.315Z,33.75
2022-08-09T13:30:04.080Z,33.75
2022-08-09T13:32:13.230Z,28.12
2022-08-09T13:32:15.579Z,28.12
2022-08-09T13:32:51.276Z,28.12
2022-08-09T13:33:53.194Z,28.12
2022-08-09T13:34:50.224Z,28.12
2022-08-09T13:36:24.548Z,28.12
2022-08-09T13:36:51.207Z,28.12
2022-08-09T13:37:51.835Z,28.12
2022-08-09T13:38:55.688Z,28.12
2022-08-09T13:41:52.561Z,28.12
2022-08-09T13:41:54.896Z,28.12
2022-08-09T13:42:01.537Z,22.50
2022-08-09T13:42:51.211Z,22.50
2022-08-09T13:43:50.123Z,22.50
2022-08-09T13:44:50.136Z,28.12
2022-08-09T13:46:42.760Z,28.12
2022-08-09T13:47:27.609Z,28.12
2022-08-09T13:47:53.736Z,28.12
2022-08-09T13:48:51.070Z,28.12
2022-08-09T13:49:57.620Z,28.12
2022-08-09T13:50:50.055Z,28.12
2022-08-09T13:51:52.391Z,28.12
2022-08-09T13:52:51.033Z,28.12
2022-08-09T13:53:50.024Z,28.12
2022-08-09T13:54:58.710Z,28.12
2022-08-09T13:55:51.007Z,28.12
2022-08-09T13:56:49.989Z,28.12
2022-08-09T13:57:55.927Z,22.50
2022-08-09T13:58:50.978Z,22.50
2022-08-09T13:59:49.954Z,22.50
2022-08-09T14:00:52.438Z,22.50
2022-08-09T14:02:00.481Z,22.50
2022-08-09T14:03:04.610Z,22.50
2022-08-09T14:04:03.854Z,22.50
2022-08-09T14:04:59.626Z,22.50
2022-08-09T14:06:00.332Z,22.50
2022-08-09T14:06:50.887Z,22.50
2022-08-09T14:07:49.898Z,22.50
2022-08-09T14:08:49.863Z,22.50
2022-08-09T14:09:49.848Z,22.50
2022-08-09T14:10:52.466Z,22.50
2022-08-09T14:11:49.831Z,22.50
2022-08-09T14:12:49.821Z,22.50
2022-08-09T14:14:24.789Z,22.50
2022-08-09T14:14:53.838Z,22.50
2022-08-09T14:16:10.628Z,16.88
2022-08-09T14:16:50.786Z,16.88
2022-08-09T14:18:06.727Z,16.88
2022-08-09T14:18:51.731Z,16.88
2022-08-09T14:19:49.755Z,16.88
2022-08-09T14:20:49.740Z,16.88
2022-08-09T14:21:49.743Z,16.88
2022-08-09T14:22:49.719Z,16.88
2022-08-09T14:23:54.525Z,16.88
2022-08-09T14:24:53.660Z,16.88
2022-08-09T14:25:50.629Z,16.88
2022-08-09T14:26:51.328Z,16.88
2022-08-09T14:27:58.823Z,16.88
2022-08-09T14:28:50.666Z,16.88
2022-08-09T14:30:35.193Z,16.88
2022-08-09T14:30:50.648Z,16.88
2022-08-09T14:31:53.346Z,16.88
2022-08-09T14:32:49.664Z,16.88
2022-08-09T14:33:54.493Z,16.88
2022-08-09T14:34:55.654Z,16.88
2022-08-09T14:35:52.078Z,16.88
2022-08-09T14:36:49.584Z,16.88
2022-08-09T14:38:02.456Z,16.88
2022-08-09T14:38:53.067Z,16.88
2022-08-09T14:39:49.579Z,16.88
2022-08-09T14:41:00.999Z,16.88
2022-08-09T14:41:50.514Z,16.88
2022-08-09T14:42:49.512Z,16.88
2022-08-09T14:43:53.248Z,16.88
2022-08-09T14:44:59.920Z,16.88
2022-08-09T14:46:57.638Z,16.88
2022-08-09T14:47:01.498Z,16.88
2022-08-09T14:47:58.686Z,11.25
2022-08-09T14:48:50.440Z,11.25
2022-08-09T14:50:02.059Z,11.25
2022-08-09T14:50:50.438Z,11.25
2022-08-09T14:51:49.416Z,11.25
2022-08-09T14:52:50.756Z,11.25
2022-08-09T14:53:52.423Z,11.25
2022-08-09T14:54:49.387Z,11.25
2022-08-09T14:55:50.467Z,11.25
2022-08-09T14:56:57.369Z,11.25
2022-08-09T14:57:51.245Z,11.25
2022-08-09T14:58:49.343Z,11.25
2022-08-09T14:59:50.349Z,11.25
2022-08-09T15:00:51.064Z,11.25
2022-08-09T15:01:49.318Z,11.25
2022-08-09T15:02:51.718Z,11.25
2022-08-09T15:03:49.305Z,11.25
2022-08-09T15:04:49.279Z,11.25
2022-08-09T15:05:52.312Z,11.25
2022-08-09T15:06:50.257Z,11.25
2022-08-09T15:07:56.450Z,11.25
2022-08-09T15:08:56.362Z,11.25
2022-08-09T15:10:10.435Z,11.25
2022-08-09T15:11:01.115Z,11.25
2022-08-09T15:11:50.233Z,11.25
2022-08-09T15:12:49.198Z,11.25
2022-08-09T15:14:04.060Z,11.25
2022-08-09T15:14:50.180Z,11.25
2022-08-09T15:15:49.186Z,11.25
2022-08-09T15:16:49.289Z,11.25
2022-08-09T15:17:52.372Z,11.25
2022-08-09T15:18:49.679Z,11.25
2022-08-09T15:19:59.320Z,11.25
2022-08-09T15:21:58.873Z,11.25
2022-08-09T15:21:58.960Z,11.25
2022-08-09T15:22:50.094Z,11.25
2022-08-09T15:24:00.874Z,11.25
2022-08-09T15:24:50.070Z,11.25
2022-08-09T15:25:49.147Z,11.25
2022-08-09T15:26:49.050Z,11.25
2022-08-09T15:28:00.729Z,11.25
2022-08-09T15:28:55.094Z,11.25
2022-08-09T15:30:58.281Z,11.25
2022-08-09T15:31:00.034Z,11.25
2022-08-09T15:31:49.996Z,11.25
2022-08-09T15:32:49.002Z,11.25
2022-08-09T15:34:17.546Z,11.25
2022-08-09T15:34:49.964Z,11.25
2022-08-09T15:36:02.055Z,5.62
2022-08-09T15:36:49.944Z,5.62
2022-08-09T15:38:10.641Z,5.62
2022-08-09T15:38:49.947Z,5.62
2022-08-09T15:39:55.014Z,5.62
2022-08-09T15:40:49.900Z,5.62
2022-08-09T15:41:50.716Z,5.62
2022-08-09T15:42:48.884Z,5.62
2022-08-09T15:43:48.879Z,5.62
2022-08-09T15:44:48.882Z,5.62
2022-08-09T15:46:08.131Z,5.62
2022-08-09T15:46:49.852Z,5.62
2022-08-09T15:48:01.940Z,5.62
2022-08-09T15:49:20.640Z,5.62
2022-08-09T15:50:00.462Z,5.62
2022-08-09T15:50:49.793Z,5.62
2022-08-09T15:52:03.340Z,5.62
2022-08-09T15:52:54.840Z,5.62
2022-08-09T15:54:03.756Z,5.62
2022-08-09T15:54:49.859Z,5.62
2022-08-09T15:56:04.323Z,5.62
2022-08-09T15:56:49.748Z,5.62
2022-08-09T15:57:51.229Z,5.62
2022-08-09T15:58:48.738Z,5.62
2022-08-09T15:59:51.805Z,5.62
2022-08-09T16:00:48.714Z,5.62
2022-08-09T16:01:48.700Z,5.62
2022-08-09T16:02:53.976Z,5.62
2022-08-09T16:03:50.952Z,5.62
2022-08-09T16:04:48.671Z,5.62
2022-08-09T16:05:54.812Z,5.62
2022-08-09T16:06:50.501Z,5.62
2022-08-09T16:07:49.394Z,5.62
2022-08-09T16:08:49.777Z,5.62
2022-08-09T16:10:02.236Z,5.62
2022-08-09T16:10:56.453Z,5.62
2022-08-09T16:11:57.167Z,5.62
2022-08-09T16:12:50.463Z,5.62
2022-08-09T16:14:02.653Z,5.62
2022-08-09T16:14:49.531Z,5.62
2022-08-09T16:16:12.331Z,5.62
2022-08-09T16:16:49.527Z,5.62
2022-08-09T16:17:48.546Z,5.62
2022-08-09T16:18:48.503Z,5.62
2022-08-09T16:19:49.267Z,5.62
2022-08-09T16:20:49.464Z,5.62
2022-08-09T16:21:51.952Z,5.62
2022-08-09T16:22:48.777Z,5.62
2022-08-09T16:23:54.998Z,5.62
2022-08-09T16:24:56.987Z,5.62
2022-08-09T16:25:49.870Z,5.62
2022-08-09T16:26:48.828Z,5.62
2022-08-09T16:27:52.926Z,5.62
2022-08-09T16:28:48.401Z,5.62
2022-08-09T16:29:50.540Z,5.62
2022-08-09T16:30:59.083Z,5.62
2022-08-09T16:32:17.663Z,5.62
2022-08-09T16:32:53.651Z,5.62
2022-08-09T16:33:49.340Z,5.62
2022-08-09T16:34:55.727Z,5.62
2022-08-09T16:35:53.404Z,5.62
2022-08-09T16:36:49.310Z,5.62
2022-08-09T16:37:55.156Z,5.62
2022-08-09T16:38:51.726Z,5.62
2022-08-09T16:40:02.606Z,5.62
2022-08-09T16:40:49.371Z,5.62
2022-08-09T16:42:03.842Z,5.62
2022-08-09T16:42:49.274Z,5.62
2022-08-09T16:43:48.256Z,5.62
2022-08-09T16:44:48.217Z,5.62
2022-08-09T16:45:48.314Z,5.62
2022-08-09T16:46:55.030Z,5.62
2022-08-09T16:48:38.348Z,5.62
2022-08-09T16:48:53.781Z,5.62
2022-08-09T16:50:29.748Z,5.62
2022-08-09T16:50:58.699Z,5.62
2022-08-09T16:51:55.235Z,5.62
2022-08-09T16:52:50.031Z,5.62
2022-08-09T16:54:24.816Z,5.62
2022-08-09T16:54:49.125Z,5.62
2022-08-09T16:56:01.210Z,5.62
2022-08-09T16:56:50.294Z,5.62
2022-08-09T16:58:10.103Z,5.62
2022-08-09T16:58:49.784Z,5.62
2022-08-09T16:59:50.260Z,5.62
2022-08-09T17:00:49.183Z,5.62
2022-08-09T17:01:51.266Z,5.62
2022-08-09T17:02:49.046Z,5.62
2022-08-09T17:03:48.043Z,5.62
2022-08-09T17:04:48.023Z,5.62
2022-08-09T17:06:08.205Z,5.62
2022-08-09T17:08:45.476Z,5.62
2022-08-09T17:08:46.353Z,5.62
2022-08-09T17:09:04.883Z,5.62
2022-08-09T17:09:48.979Z,5.62
2022-08-09T17:10:47.975Z,5.62
2022-08-09T17:11:52.590Z,5.62
2022-08-09T17:12:47.934Z,0.00
2022-08-09T17:13:47.946Z,0.00
2022-08-09T17:14:53.565Z,0.00
2022-08-09T17:15:59.210Z,0.00
2022-08-09T17:16:48.946Z,0.00
2022-08-09T17:17:50.445Z,0.00
2022-08-09T17:18:47.874Z,0.00
2022-08-09T17:20:32.552Z,0.00
2022-08-09T17:20:52.454Z,0.00
2022-08-09T17:21:47.872Z,0.00
2022-08-09T17:22:51.682Z,0.00
2022-08-09T17:24:20.970Z,0.00
2022-08-09T17:24:54.953Z,0.00
2022-08-09T17:25:52.760Z,0.00
2022-08-09T17:26:53.525Z,0.00
2022-08-09T17:27:53.847Z,0.00
2022-08-09T17:28:48.777Z,0.00
2022-08-09T17:29:47.763Z,0.00